createdAt,value
2022-10-05T00:02:23.629Z,15.98
2022-10-05T00:05:31.784Z,15.50
2022-10-05T00:08:37.152Z,15.05
2022-10-05T00:11:40.385Z,16.48
2022-10-05T00:14:45.004Z,14.93
2022-10-05T00:17:48.214Z,15.13
2022-10-05T00:20:51.416Z,15.55
2022-10-05T00:23:59.682Z,16.40
2022-10-05T00:27:03.267Z,15.45
2022-10-05T00:30:15.149Z,17.20
2022-10-05T00:33:19.036Z,16.35
2022-10-05T00:36:22.337Z,16.20
2022-10-05T00:39:27.143Z,16.25
2022-10-05T00:42:40.586Z,16.90
2022-10-05T00:45:48.657Z,16.63
2022-10-05T00:49:03.557Z,17.35
2022-10-05T00:52:20.435Z,16.88
2022-10-05T00:55:34.616Z,17.38
2022-10-05T00:58:50.904Z,17.25
2022-10-05T01:02:01.247Z,18.20
2022-10-05T01:08:21.976Z,17.92
2022-10-05T01:11:33.155Z,17.30
2022-10-05T01:14:48.271Z,17.88
2022-10-05T01:17:58.399Z,17.63
2022-10-05T01:21:07.631Z,17.27
2022-10-05T01:24:42.935Z,17.77
2022-10-05T01:27:58.813Z,17.40
2022-10-05T01:31:21.040Z,17.60
2022-10-05T01:34:30.950Z,15.90
2022-10-05T01:37:45.200Z,16.10
2022-10-05T01:40:57.539Z,16.20
2022-10-05T01:44:05.972Z,14.50
2022-10-05T01:47:13.514Z,14.77
2022-10-05T01:50:27.692Z,14.77
2022-10-05T01:53:42.644Z,13.95
2022-10-05T01:56:56.472Z,13.77
2022-10-05T02:00:07.727Z,13.38
2022-10-05T02:03:24.738Z,14.38
2022-10-05T02:06:34.109Z,13.93
2022-10-05T02:09:42.447Z,14.05
2022-10-05T02:12:47.790Z,13.95
2022-10-05T02:15:57.937Z,13.25
2022-10-05T02:19:06.161Z,14.43
2022-10-05T02:22:14.343Z,13.50
2022-10-05T02:25:20.900Z,14.30
2022-10-05T02:28:29.283Z,13.27
2022-10-05T02:31:41.673Z,14.18
2022-10-05T02:34:45.807Z,14.05
2022-10-05T02:38:06.460Z,13.82
2022-10-05T02:41:19.977Z,13.60
2022-10-05T02:44:30.343Z,14.25
2022-10-05T02:50:50.607Z,13.57
2022-10-05T02:54:05.669Z,13.77
2022-10-05T02:57:17.512Z,13.73
2022-10-05T03:00:25.093Z,13.75
2022-10-05T03:03:36.680Z,14.70
2022-10-05T03:06:49.129Z,14.85
2022-10-05T03:10:05.095Z,14.10
2022-10-05T03:13:17.903Z,15.18
2022-10-05T03:16:36.108Z,16.70
2022-10-05T03:20:04.090Z,15.75
2022-10-05T03:23:16.423Z,18.40
2022-10-05T03:26:35.554Z,18.40
2022-10-05T03:29:45.458Z,18.55
2022-10-05T03:32:58.414Z,17.08
2022-10-05T03:36:09.630Z,17.40
2022-10-05T03:39:19.310Z,17.17
2022-10-05T03:42:31.827Z,18.20
2022-10-05T03:45:43.485Z,16.65
2022-10-05T03:48:53.916Z,18.00
2022-10-05T03:52:07.142Z,16.75
2022-10-05T03:55:18.494Z,16.48
2022-10-05T03:58:25.591Z,16.92
2022-10-05T04:01:38.392Z,17.63
2022-10-05T04:04:46.326Z,17.55
2022-10-05T04:07:56.706Z,17.77
2022-10-05T04:14:14.320Z,16.73
2022-10-05T04:17:23.070Z,18.10
2022-10-05T04:20:31.724Z,17.17
2022-10-05T04:23:45.162Z,17.67
2022-10-05T04:26:54.778Z,17.70
2022-10-05T04:30:04.613Z,18.10
2022-10-05T04:33:12.620Z,17.80
2022-10-05T04:36:25.431Z,19.50
2022-10-05T04:39:39.483Z,20.35
2022-10-05T04:42:51.268Z,20.15
2022-10-05T04:46:10.048Z,20.55
2022-10-05T04:49:31.230Z,20.98
2022-10-05T04:52:40.977Z,20.15
2022-10-05T04:55:54.601Z,14.90
2022-10-05T04:59:11.516Z,21.15
2022-10-05T05:02:24.998Z,20.80
2022-10-05T05:05:35.866Z,20.02
2022-10-05T05:09:04.066Z,20.10
2022-10-05T05:12:22.009Z,21.07
2022-10-05T05:15:41.462Z,20.42
2022-10-05T05:19:10.553Z,19.38
2022-10-05T05:22:21.706Z,18.13
2022-10-05T05:25:37.663Z,20.80
2022-10-05T05:28:49.624Z,20.80
2022-10-05T05:32:02.268Z,20.98
2022-10-05T05:35:23.388Z,20.90
2022-10-05T05:38:32.513Z,21.27
2022-10-05T05:41:40.282Z,21.27
2022-10-05T05:44:51.804Z,20.75
2022-10-05T05:48:00.155Z,18.52
2022-10-05T05:51:08.282Z,17.75
2022-10-05T05:54:24.435Z,18.77
2022-10-05T05:57:31.016Z,18.05
2022-10-05T06:00:43.882Z,17.30
2022-10-05T06:03:53.298Z,16.38
2022-10-05T06:07:02.944Z,24.55
2022-10-05T06:10:26.418Z,16.17
2022-10-05T06:13:41.616Z,13.90
2022-10-05T06:16:52.454Z,14.25
2022-10-05T06:20:04.907Z,13.07
2022-10-05T06:23:17.678Z,13.05
2022-10-05T06:26:55.273Z,12.25
2022-10-05T06:30:06.629Z,12.25
2022-10-05T06:33:24.903Z,13.48
2022-10-05T06:36:42.027Z,15.57
2022-10-05T06:40:03.045Z,14.80
2022-10-05T06:43:32.675Z,13.73
2022-10-05T06:47:01.547Z,13.20
2022-10-05T06:53:54.507Z,11.05
2022-10-05T06:57:04.407Z,10.82
2022-10-05T07:00:17.997Z,12.48
2022-10-05T07:03:32.459Z,12.18
2022-10-05T07:06:42.222Z,11.25
2022-10-05T07:09:57.168Z,27.10
2022-10-05T07:13:20.495Z,11.38
2022-10-05T07:16:31.419Z,13.38
2022-10-05T07:19:40.994Z,12.52
2022-10-05T07:23:04.120Z,12.47
2022-10-05T07:26:14.849Z,11.00
2022-10-05T07:29:25.062Z,10.52
2022-10-05T07:32:35.761Z,10.00
2022-10-05T07:36:03.154Z,10.55
2022-10-05T07:39:15.084Z,9.75
2022-10-05T07:42:26.062Z,9.70
2022-10-05T07:45:32.954Z,10.23
2022-10-05T07:48:56.221Z,9.68
2022-10-05T07:52:03.420Z,9.52
2022-10-05T07:55:20.088Z,8.75
2022-10-05T07:58:30.009Z,9.23
2022-10-05T08:01:39.144Z,9.82
2022-10-05T08:04:53.244Z,9.18
2022-10-05T08:08:04.594Z,9.70
2022-10-05T08:11:15.964Z,9.75
2022-10-05T08:14:28.361Z,9.13
2022-10-05T08:17:40.607Z,9.18
2022-10-05T08:20:48.324Z,20.95
2022-10-05T08:23:56.547Z,9.95
2022-10-05T08:27:06.407Z,10.07
2022-10-05T08:30:12.970Z,9.82
2022-10-05T08:33:19.719Z,14.00
2022-10-05T08:36:30.193Z,10.10
2022-10-05T08:39:40.229Z,9.57
2022-10-05T08:43:13.567Z,9.32
2022-10-05T08:46:39.505Z,10.85
2022-10-05T08:50:16.033Z,10.65
2022-10-05T08:53:46.482Z,10.20
2022-10-05T08:56:57.710Z,9.93
2022-10-05T09:00:11.754Z,10.10
2022-10-05T09:03:34.708Z,11.10
2022-10-05T09:07:01.794Z,9.80
2022-10-05T09:10:32.632Z,12.25
2022-10-05T09:14:18.418Z,11.45
2022-10-05T09:17:42.699Z,28.95
2022-10-05T09:20:53.992Z,16.65
2022-10-05T09:24:11.714Z,11.10
2022-10-05T09:27:17.801Z,11.15
2022-10-05T09:30:29.480Z,10.10
2022-10-05T09:34:05.176Z,10.35
2022-10-05T09:37:44.258Z,10.57
2022-10-05T09:41:22.256Z,10.07
2022-10-05T09:44:54.230Z,9.77
2022-10-05T09:48:29.544Z,8.73
2022-10-05T09:52:06.171Z,8.68
2022-10-05T09:55:40.282Z,9.05
2022-10-05T09:59:15.954Z,8.23
2022-10-05T10:02:39.396Z,8.77
2022-10-05T10:06:10.413Z,8.35
2022-10-05T10:09:29.434Z,8.30
2022-10-05T10:12:42.810Z,9.32
2022-10-05T10:16:19.452Z,8.40
2022-10-05T10:19:52.217Z,9.38
2022-10-05T10:23:27.234Z,14.05
2022-10-05T10:27:12.612Z,28.48
2022-10-05T10:30:55.794Z,8.75
2022-10-05T10:34:23.066Z,10.60
2022-10-05T10:37:40.946Z,8.68
2022-10-05T10:41:26.542Z,8.32
2022-10-05T10:45:02.941Z,8.50
2022-10-05T10:48:12.168Z,8.15
2022-10-05T10:51:23.791Z,8.88
2022-10-05T10:55:11.802Z,8.07
2022-10-05T10:59:01.473Z,7.90
2022-10-05T11:02:23.704Z,7.47
2022-10-05T11:06:03.483Z,7.43
2022-10-05T11:09:45.537Z,7.30
2022-10-05T11:13:14.259Z,7.05
2022-10-05T11:16:56.805Z,7.03
2022-10-05T11:20:17.426Z,6.82
2022-10-05T11:23:56.011Z,6.68
2022-10-05T11:27:13.625Z,6.65
2022-10-05T11:30:27.478Z,7.00
2022-10-05T11:34:10.087Z,8.10
2022-10-05T11:37:43.061Z,6.85
2022-10-05T11:41:24.894Z,7.03
2022-10-05T11:45:15.430Z,6.90
2022-10-05T11:48:42.078Z,6.50
2022-10-05T11:51:53.834Z,6.32
2022-10-05T11:55:15.021Z,6.32
2022-10-05T11:58:27.282Z,6.13
2022-10-05T12:01:43.302Z,6.38
2022-10-05T12:04:59.080Z,5.80
2022-10-05T12:08:16.554Z,5.80
2022-10-05T12:11:47.757Z,5.70
2022-10-05T12:14:56.455Z,5.97
2022-10-05T12:18:08.426Z,5.70
2022-10-05T12:21:21.115Z,5.43
2022-10-05T12:24:32.919Z,6.25
2022-10-05T12:27:40.455Z,5.13
2022-10-05T12:31:12.898Z,7.13
2022-10-05T12:34:27.996Z,7.15
2022-10-05T12:37:46.402Z,5.78
2022-10-05T12:40:54.859Z,6.80
2022-10-05T12:44:14.101Z,6.25
2022-10-05T12:47:23.840Z,5.53
2022-10-05T12:50:33.768Z,5.70
2022-10-05T12:53:48.600Z,5.80
2022-10-05T12:56:56.200Z,5.95
2022-10-05T13:00:06.049Z,5.68
2022-10-05T13:03:19.119Z,5.85
2022-10-05T13:06:34.445Z,5.80
2022-10-05T13:09:43.432Z,5.82
2022-10-05T13:12:55.270Z,5.65
2022-10-05T13:16:05.976Z,5.85
2022-10-05T13:19:39.202Z,5.68
2022-10-05T13:22:47.891Z,5.50
2022-10-05T13:25:57.604Z,5.82
2022-10-05T13:29:12.153Z,6.40
2022-10-05T13:32:21.242Z,6.93
2022-10-05T13:35:44.167Z,7.25
2022-10-05T13:38:56.446Z,6.80
2022-10-05T13:42:05.835Z,6.20
2022-10-05T13:45:18.302Z,6.00
2022-10-05T13:48:40.146Z,7.20
2022-10-05T13:51:51.942Z,6.38
2022-10-05T13:55:02.985Z,6.60
2022-10-05T13:58:14.143Z,6.03
2022-10-05T14:01:26.373Z,5.43
2022-10-05T14:04:31.157Z,5.78
2022-10-05T14:07:38.159Z,5.90
2022-10-05T14:10:45.200Z,6.00
2022-10-05T14:13:49.302Z,6.15
2022-10-05T14:16:54.763Z,5.85
2022-10-05T14:20:01.055Z,6.07
2022-10-05T14:23:12.216Z,6.57
2022-10-05T14:26:34.768Z,5.95
2022-10-05T14:29:39.428Z,6.13
2022-10-05T14:32:50.081Z,6.85
2022-10-05T14:35:55.711Z,6.30
2022-10-05T14:39:02.167Z,6.72
2022-10-05T14:42:21.222Z,6.32
2022-10-05T14:45:26.413Z,6.70
2022-10-05T14:48:38.687Z,7.40
2022-10-05T14:51:42.806Z,7.60
2022-10-05T14:54:56.896Z,7.22
2022-10-05T14:58:16.031Z,7.22
2022-10-05T15:01:27.387Z,7.10
2022-10-05T15:04:43.816Z,12.38
2022-10-05T15:07:50.055Z,7.68
2022-10-05T15:11:00.276Z,6.68
2022-10-05T15:14:13.347Z,6.57
2022-10-05T15:17:21.564Z,6.13
2022-10-05T15:20:30.874Z,6.68
2022-10-05T15:23:41.284Z,6.47
2022-10-05T15:26:50.556Z,6.60
2022-10-05T15:30:04.486Z,6.28
2022-10-05T15:33:15.495Z,8.60
2022-10-05T15:36:23.234Z,9.95
2022-10-05T15:39:35.358Z,13.65
2022-10-05T15:42:42.643Z,18.10
2022-10-05T15:45:57.113Z,22.02
2022-10-05T15:49:09.415Z,19.70
2022-10-05T15:52:23.892Z,18.77
2022-10-05T15:55:39.301Z,19.73
2022-10-05T15:58:53.911Z,14.30
2022-10-05T16:02:01.925Z,13.63
2022-10-05T16:05:41.033Z,14.57
2022-10-05T16:09:04.238Z,13.50
2022-10-05T16:12:46.424Z,12.88
2022-10-05T16:15:55.287Z,13.77
2022-10-05T16:19:10.536Z,16.33
2022-10-05T16:22:23.097Z,14.65
2022-10-05T16:25:35.287Z,13.90
2022-10-05T16:28:49.789Z,13.02
2022-10-05T16:31:58.758Z,11.25
2022-10-05T16:35:16.608Z,11.18
2022-10-05T16:38:29.208Z,12.80
2022-10-05T16:41:43.521Z,14.35
2022-10-05T16:44:54.567Z,31.00
2022-10-05T16:48:04.525Z,19.85
2022-10-05T16:51:25.297Z,18.65
2022-10-05T16:54:32.934Z,16.92
2022-10-05T16:57:40.306Z,17.80
2022-10-05T17:01:02.221Z,17.80
2022-10-05T17:04:21.197Z,16.73
2022-10-05T17:07:49.037Z,15.70
2022-10-05T17:11:00.898Z,20.13
2022-10-05T17:14:30.449Z,18.55
2022-10-05T17:18:00.594Z,15.87
2022-10-05T17:21:08.120Z,15.82
2022-10-05T17:24:41.800Z,15.02
2022-10-05T17:27:54.629Z,13.68
2022-10-05T17:31:18.188Z,11.98
2022-10-05T17:34:29.573Z,13.77
2022-10-05T17:37:38.989Z,12.43
2022-10-05T17:41:06.402Z,29.93
2022-10-05T17:44:21.824Z,25.17
2022-10-05T17:47:58.155Z,16.20
2022-10-05T17:51:19.256Z,26.20
2022-10-05T17:54:43.126Z,38.42
2022-10-05T17:57:48.576Z,17.33
2022-10-05T18:01:20.554Z,16.75
2022-10-05T18:04:42.606Z,14.15
2022-10-05T18:07:48.674Z,12.43
2022-10-05T18:11:17.303Z,11.70
2022-10-05T18:14:25.011Z,12.60
2022-10-05T18:17:42.175Z,12.48
2022-10-05T18:21:11.777Z,11.40
2022-10-05T18:24:46.028Z,8.90
2022-10-05T18:28:07.976Z,12.40
2022-10-05T18:31:27.721Z,30.55
2022-10-05T18:34:36.650Z,14.02
2022-10-05T18:37:52.689Z,27.55
2022-10-05T18:41:05.072Z,13.82
2022-10-05T18:44:35.631Z,22.75
2022-10-05T18:47:50.322Z,13.30
2022-10-05T18:51:01.505Z,13.32
2022-10-05T18:54:15.760Z,13.35
2022-10-05T18:57:51.604Z,12.05
2022-10-05T19:01:08.250Z,10.88
2022-10-05T19:04:25.901Z,11.13
2022-10-05T19:07:40.824Z,11.40
2022-10-05T19:10:51.955Z,11.52
2022-10-05T19:14:05.618Z,11.73
2022-10-05T19:17:24.461Z,13.10
2022-10-05T19:20:37.502Z,10.73
2022-10-05T19:24:20.092Z,10.05
2022-10-05T19:27:35.791Z,10.30
2022-10-05T19:31:09.777Z,10.63
2022-10-05T19:34:31.622Z,10.05
2022-10-05T19:37:50.137Z,10.20
2022-10-05T19:41:01.194Z,42.40
2022-10-05T19:44:18.351Z,11.50
2022-10-05T19:47:36.378Z,11.40
2022-10-05T19:50:54.717Z,10.00
2022-10-05T19:54:03.029Z,10.23
2022-10-05T19:57:18.061Z,9.90
2022-10-05T20:00:24.744Z,10.75
2022-10-05T20:03:30.319Z,11.05
2022-10-05T20:06:35.214Z,10.98
2022-10-05T20:09:57.951Z,9.32
2022-10-05T20:13:02.961Z,10.43
2022-10-05T20:16:48.548Z,10.10
2022-10-05T20:20:09.867Z,10.45
2022-10-05T20:23:28.020Z,10.35
2022-10-05T20:27:00.740Z,10.55
2022-10-05T20:30:04.333Z,10.02
2022-10-05T20:33:14.723Z,10.40
2022-10-05T20:36:18.322Z,10.25
2022-10-05T20:39:21.642Z,9.60
2022-10-05T20:42:26.690Z,9.85
2022-10-05T20:45:29.969Z,10.30
2022-10-05T20:48:33.216Z,10.40
2022-10-05T20:51:37.052Z,9.75
2022-10-05T20:54:42.559Z,10.13
2022-10-05T20:57:47.537Z,9.90
2022-10-05T21:01:08.143Z,10.10
2022-10-05T21:04:11.607Z,10.23
2022-10-05T21:07:16.332Z,9.80
2022-10-05T21:10:19.548Z,10.00
2022-10-05T21:13:25.535Z,9.88
2022-10-05T21:16:29.621Z,10.95
2022-10-05T21:19:38.343Z,11.55
2022-10-05T21:22:41.941Z,11.00
2022-10-05T21:25:45.483Z,10.30
2022-10-05T21:28:50.584Z,11.32
2022-10-05T21:31:53.953Z,11.30
2022-10-05T21:34:57.640Z,11.52
2022-10-05T21:38:00.971Z,10.55
2022-10-05T21:41:04.443Z,10.55
2022-10-05T21:44:09.006Z,10.00
2022-10-05T21:47:12.630Z,11.07
2022-10-05T21:50:16.449Z,10.48
2022-10-05T21:53:22.205Z,9.73
2022-10-05T21:56:30.112Z,10.10
2022-10-05T21:59:35.592Z,10.60
2022-10-05T22:02:38.919Z,10.55
2022-10-05T22:05:42.492Z,11.70
2022-10-05T22:08:46.069Z,11.18
2022-10-05T22:11:49.607Z,10.90
2022-10-05T22:14:54.392Z,11.00
2022-10-05T22:17:57.944Z,11.02
2022-10-05T22:21:01.140Z,11.07
2022-10-05T22:24:04.314Z,11.38
2022-10-05T22:27:07.768Z,11.00
2022-10-05T22:30:14.997Z,10.82
2022-10-05T22:33:18.308Z,10.02
2022-10-05T22:36:21.899Z,10.57
2022-10-05T22:39:25.471Z,11.82
2022-10-05T22:42:28.952Z,10.50
2022-10-05T22:45:33.684Z,10.10
2022-10-05T22:48:36.886Z,10.23
2022-10-05T22:51:40.067Z,10.43
2022-10-05T22:54:43.847Z,10.00
2022-10-05T22:57:47.258Z,10.68
2022-10-05T23:00:58.387Z,10.18
2022-10-05T23:04:02.407Z,10.13
2022-10-05T23:07:06.336Z,9.80
2022-10-05T23:10:12.276Z,10.10
2022-10-05T23:13:16.518Z,10.07
2022-10-05T23:16:23.111Z,10.23
2022-10-05T23:19:26.358Z,9.65
2022-10-05T23:22:29.571Z,9.70
2022-10-05T23:25:32.759Z,9.65
2022-10-05T23:28:36.222Z,9.55
2022-10-05T23:31:40.858Z,9.05
2022-10-05T23:34:44.020Z,9.93
2022-10-05T23:37:47.346Z,9.38
2022-10-05T23:40:50.722Z,9.25
2022-10-05T23:43:55.804Z,10.05
2022-10-05T23:47:00.348Z,10.02
2022-10-05T23:50:03.697Z,9.30
2022-10-05T23:53:07.177Z,10.23
2022-10-05T23:56:10.341Z,9.63
2022-10-05T23:59:13.510Z,9.32
